Time;durP1;ratioP1;P1;durP2;ratioP2;P2;SDS_P1;SDS_P2;PMS_P1;PMS_P2;Temp;Humidity;BMP_temperature;BMP_pressure;BME280_temperature;BME280_humidity;BME280_pressure;Samples;Min_cycle;Max_cycle;Signal;HPM_P1;HPM_P2
2022/08/26 00:01:14;;;;;;;7.57;5.93;;;22.10;73.50;;;;;;5037629;28;20552;-72
2022/08/26 00:03:40;;;;;;;8.73;6.80;;;22.10;73.70;;;;;;5045502;28;20434;-72
2022/08/26 00:06:07;;;;;;;9.53;7.10;;;22.10;73.70;;;;;;5035438;28;20441;-73
2022/08/26 00:08:34;;;;;;;8.90;6.73;;;22.10;73.60;;;;;;5047521;28;20195;-71
2022/08/26 00:11:00;;;;;;;8.73;6.73;;;22.10;73.70;;;;;;5038363;28;21134;-74
2022/08/26 00:13:26;;;;;;;8.93;7.27;;;22.00;74.30;;;;;;5033912;28;20431;-72
2022/08/26 00:15:52;;;;;;;11.13;7.80;;;21.90;74.50;;;;;;5035962;28;20452;-72
2022/08/26 00:18:18;;;;;;;8.63;6.37;;;21.90;74.80;;;;;;5038604;28;20524;-72
2022/08/26 00:20:44;;;;;;;7.73;6.20;;;21.90;74.90;;;;;;5029529;28;20220;-74
2022/08/26 00:23:10;;;;;;;7.63;6.43;;;21.90;74.80;;;;;;5037362;28;20822;-72
2022/08/26 00:25:37;;;;;;;9.50;6.13;;;21.90;74.60;;;;;;5042423;28;20291;-71
2022/08/26 00:28:03;;;;;;;7.27;5.97;;;21.80;74.60;;;;;;5044646;28;20192;-73
2022/08/26 00:30:30;;;;;;;8.73;6.60;;;21.80;74.60;;;;;;5041836;28;20922;-71
2022/08/26 00:32:56;;;;;;;9.03;7.50;;;21.80;74.60;;;;;;5042884;28;20429;-71
2022/08/26 00:35:23;;;;;;;8.60;6.63;;;21.80;74.60;;;;;;5040937;28;20487;-72
2022/08/26 00:37:50;;;;;;;10.70;7.20;;;21.80;74.80;;;;;;5043372;28;20434;-73
2022/08/26 00:40:19;;;;;;;11.00;7.20;;;21.70;75.10;;;;;;5036230;28;20961;-72
2022/08/26 00:42:45;;;;;;;8.10;6.30;;;21.60;75.40;;;;;;5037207;28;20429;-72
2022/08/26 00:45:11;;;;;;;12.50;7.27;;;21.60;75.70;;;;;;5040269;28;20425;-72
2022/08/26 00:47:43;;;;;;;7.20;5.83;;;21.60;75.70;;;;;;5037865;28;20191;-70
2022/08/26 00:50:13;;;;;;;7.90;6.33;;;21.70;75.50;;;;;;5037189;28;20685;-73
2022/08/26 00:52:39;;;;;;;8.27;6.87;;;21.80;75.10;;;;;;5046004;28;20435;-74
2022/08/26 00:55:18;;;;;;;9.73;6.70;;;21.70;75.10;;;;;;5036456;28;20427;-72
2022/08/26 00:57:46;;;;;;;9.93;6.90;;;21.80;75.20;;;;;;5034388;28;20788;-75
2022/08/26 01:00:20;;;;;;;11.80;7.07;;;21.70;75.10;;;;;;5042995;28;20446;-73
2022/08/26 01:02:48;;;;;;;11.00;6.40;;;21.70;75.40;;;;;;5047268;28;20403;-73
2022/08/26 01:05:15;;;;;;;9.13;6.37;;;21.70;75.40;;;;;;5050551;28;20457;-75
2022/08/26 01:07:41;;;;;;;10.67;7.20;;;21.70;75.50;;;;;;5044640;28;20450;-75
2022/08/26 01:10:11;;;;;;;6.60;5.80;;;21.70;75.50;;;;;;5044763;28;20434;-73
2022/08/26 01:12:44;;;;;;;9.83;7.20;;;21.70;75.40;;;;;;5047624;28;20476;-75
2022/08/26 01:15:14;;;;;;;10.40;6.73;;;21.50;75.80;;;;;;5044585;28;20422;-72
2022/08/26 01:17:40;;;;;;;11.60;6.30;;;21.50;76.20;;;;;;5045323;28;20928;-74
2022/08/26 01:20:18;;;;;;;10.53;6.80;;;21.50;76.40;;;;;;5036129;28;20545;-71
2022/08/26 01:22:54;;;;;;;9.00;6.30;;;21.60;76.20;;;;;;5043241;28;20415;-72
2022/08/26 01:25:21;;;;;;;10.70;7.57;;;21.60;76.20;;;;;;5041410;28;20516;-71
2022/08/26 01:27:46;;;;;;;12.20;7.60;;;21.50;76.40;;;;;;5042377;28;20428;-73
2022/08/26 01:30:13;;;;;;;8.50;6.93;;;21.50;76.40;;;;;;5039775;28;20466;-71
2022/08/26 01:32:40;;;;;;;11.47;7.87;;;21.30;76.80;;;;;;5039647;28;20726;-72
2022/08/26 01:35:06;;;;;;;9.77;7.43;;;21.20;77.60;;;;;;5038440;28;20486;-71
2022/08/26 01:37:35;;;;;;;8.13;7.30;;;21.20;77.80;;;;;;5041722;28;20434;-72
2022/08/26 01:40:04;;;;;;;9.13;6.97;;;21.10;78.00;;;;;;5041387;28;20505;-72
2022/08/26 01:42:29;;;;;;;14.37;7.47;;;21.00;78.60;;;;;;5041555;28;20511;-71
2022/08/26 01:45:05;;;;;;;10.77;8.17;;;20.90;78.70;;;;;;5036874;28;20477;-73
2022/08/26 01:47:34;;;;;;;13.17;7.90;;;20.90;79.00;;;;;;5033263;28;20247;-72
2022/08/26 01:50:03;;;;;;;10.47;7.97;;;20.80;79.50;;;;;;5038225;28;20914;-71
2022/08/26 01:52:32;;;;;;;11.83;7.90;;;20.90;79.50;;;;;;5036832;28;20473;-72
2022/08/26 01:54:58;;;;;;;10.40;8.00;;;21.00;78.90;;;;;;5045622;28;20437;-71
2022/08/26 01:57:25;;;;;;;11.53;7.60;;;21.00;78.60;;;;;;5035865;28;20418;-71
2022/08/26 01:59:53;;;;;;;10.30;6.60;;;21.00;78.70;;;;;;5041067;28;20537;-72
2022/08/26 02:02:19;;;;;;;10.00;7.33;;;21.10;78.40;;;;;;5041033;28;20440;-71
2022/08/26 02:04:49;;;;;;;9.63;7.40;;;21.00;78.40;;;;;;5041962;28;20430;-72
2022/08/26 02:07:17;;;;;;;11.80;7.40;;;21.10;78.30;;;;;;5040623;28;20218;-72
2022/08/26 02:09:43;;;;;;;11.70;8.20;;;21.10;78.40;;;;;;5038679;28;20587;-71
2022/08/26 02:12:13;;;;;;;11.47;7.70;;;21.00;78.40;;;;;;5038383;28;20571;-72
2022/08/26 02:14:42;;;;;;;15.10;7.70;;;20.90;78.90;;;;;;5039416;28;20246;-72
2022/08/26 02:17:09;;;;;;;13.27;7.13;;;20.80;79.20;;;;;;5036064;28;20429;-73
2022/08/26 02:19:40;;;;;;;11.33;7.37;;;20.80;79.50;;;;;;5037615;28;20481;-71
2022/08/26 02:22:12;;;;;;;10.90;7.47;;;20.90;79.50;;;;;;5035961;28;20793;-71
2022/08/26 02:25:13;;;;;;;12.03;7.10;;;20.90;79.60;;;;;;5039546;28;20495;-71
2022/08/26 02:27:39;;;;;;;11.60;7.60;;;20.80;79.90;;;;;;5027914;28;20518;-72
2022/08/26 02:30:17;;;;;;;13.13;8.20;;;20.80;79.90;;;;;;5034375;28;20477;-73
2022/08/26 02:32:43;;;;;;;13.23;7.67;;;20.90;79.70;;;;;;5038792;28;20199;-72
2022/08/26 02:35:11;;;;;;;12.57;6.93;;;20.90;79.50;;;;;;5038294;28;20413;-72
2022/08/26 02:37:37;;;;;;;9.63;7.43;;;20.90;78.90;;;;;;5038359;28;20427;-73
2022/08/26 02:40:05;;;;;;;10.60;7.20;;;20.90;78.60;;;;;;5039810;28;20444;-71
2022/08/26 02:42:31;;;;;;;11.10;7.93;;;20.80;79.20;;;;;;5043953;28;20932;-71
2022/08/26 02:44:57;;;;;;;10.93;7.40;;;20.80;79.50;;;;;;5043982;28;20417;-71
2022/08/26 02:47:24;;;;;;;10.23;8.10;;;20.80;79.30;;;;;;5043420;28;21136;-71
2022/08/26 02:49:50;;;;;;;10.70;8.30;;;20.70;79.30;;;;;;5037876;28;20214;-71
2022/08/26 02:52:15;;;;;;;18.73;8.40;;;20.60;79.90;;;;;;5036072;28;20474;-73
2022/08/26 02:54:41;;;;;;;12.80;8.87;;;20.50;80.20;;;;;;5035554;28;20425;-72
2022/08/26 02:57:07;;;;;;;9.37;7.47;;;20.40;80.50;;;;;;5042343;28;20188;-72
2022/08/26 02:59:34;;;;;;;11.77;7.93;;;20.40;80.90;;;;;;5042754;28;20214;-75
2022/08/26 03:02:00;;;;;;;14.60;7.60;;;20.40;81.10;;;;;;5052719;28;20248;-72
2022/08/26 03:04:26;;;;;;;10.10;7.83;;;20.30;81.20;;;;;;5052746;28;20450;-72
2022/08/26 03:06:53;;;;;;;11.93;7.90;;;20.30;81.40;;;;;;5042560;28;20866;-73
2022/08/26 03:09:19;;;;;;;13.60;8.73;;;20.30;81.70;;;;;;5036490;28;20646;-72
2022/08/26 03:11:46;;;;;;;10.03;6.97;;;20.30;81.80;;;;;;5042554;28;20481;-71
2022/08/26 03:14:12;;;;;;;11.63;8.27;;;20.30;81.90;;;;;;5043936;28;20264;-71
2022/08/26 03:16:38;;;;;;;11.07;7.10;;;20.30;82.20;;;;;;5036236;28;20433;-72
2022/08/26 03:19:06;;;;;;;12.47;8.07;;;20.30;82.40;;;;;;5035901;28;20436;-72
2022/08/26 03:21:32;;;;;;;9.30;8.30;;;20.40;81.80;;;;;;5033992;28;20538;-73
2022/08/26 03:23:57;;;;;;;9.40;7.37;;;20.40;81.50;;;;;;5043121;28;20424;-73
2022/08/26 03:26:23;;;;;;;10.40;7.43;;;20.40;81.50;;;;;;5035954;28;20234;-71
2022/08/26 03:31:33;;;;;;;14.07;9.00;;;20.40;81.70;;;;;;5033598;28;20253;-73
2022/08/26 03:33:58;;;;;;;13.17;8.70;;;20.40;81.50;;;;;;5043310;28;20856;-72
2022/08/26 03:36:24;;;;;;;10.90;8.13;;;20.30;81.70;;;;;;5037337;28;20953;-72
2022/08/26 03:38:50;;;;;;;12.43;8.30;;;20.30;81.70;;;;;;5041158;28;20180;-72
2022/08/26 03:41:16;;;;;;;11.47;8.20;;;20.30;81.80;;;;;;5031497;28;20294;-72
2022/08/26 03:43:42;;;;;;;13.50;9.13;;;20.40;81.90;;;;;;5042794;28;20650;-73
2022/08/26 03:46:10;;;;;;;15.13;8.50;;;20.40;81.80;;;;;;5034770;28;20428;-71
2022/08/26 03:48:36;;;;;;;12.87;8.83;;;20.40;82.10;;;;;;5039326;28;20192;-71
2022/08/26 03:51:04;;;;;;;12.33;8.20;;;20.30;81.80;;;;;;5036836;28;21045;-71
2022/08/26 03:53:29;;;;;;;13.87;8.87;;;20.30;81.40;;;;;;5041277;28;20437;-74
2022/08/26 03:55:56;;;;;;;10.17;7.40;;;20.30;81.10;;;;;;5046210;28;20424;-72
2022/08/26 03:58:23;;;;;;;11.30;8.40;;;20.20;81.50;;;;;;5039315;28;20182;-73
2022/08/26 04:00:50;;;;;;;11.50;8.53;;;20.10;81.80;;;;;;5037868;28;20618;-73
2022/08/26 04:03:56;;;;;;;12.40;7.53;;;20.10;81.80;;;;;;5039875;28;20433;-72
2022/08/26 04:06:02;;;;;;;9.23;7.93;;;20.10;81.80;;;;;;5035393;28;20422;-72
2022/08/26 04:08:28;;;;;;;11.50;8.13;;;20.10;81.40;;;;;;5036276;28;20446;-72
2022/08/26 04:10:53;;;;;;;10.00;7.50;;;20.00;81.80;;;;;;5040508;28;21001;-71
2022/08/26 04:13:19;;;;;;;13.10;9.10;;;19.90;82.20;;;;;;5036391;28;20201;-73
2022/08/26 04:15:44;;;;;;;11.30;8.30;;;19.80;82.40;;;;;;5042587;28;20185;-71
2022/08/26 04:18:10;;;;;;;10.83;8.17;;;19.70;82.70;;;;;;5037087;28;20277;-72
2022/08/26 04:20:36;;;;;;;12.47;8.70;;;19.70;83.00;;;;;;5040733;28;20210;-74
2022/08/26 04:23:01;;;;;;;10.87;8.53;;;19.80;82.70;;;;;;5036641;28;20188;-74
2022/08/26 04:25:27;;;;;;;11.37;8.17;;;19.80;82.70;;;;;;5043854;28;20299;-73
2022/08/26 04:27:52;;;;;;;12.20;8.60;;;19.70;82.80;;;;;;5034439;28;20194;-71
2022/08/26 04:30:18;;;;;;;12.07;8.50;;;19.80;83.10;;;;;;5038031;28;20260;-72
2022/08/26 04:32:44;;;;;;;10.10;6.93;;;19.80;83.10;;;;;;5032491;28;20221;-71
2022/08/26 04:35:10;;;;;;;11.70;8.43;;;19.90;83.10;;;;;;5049120;28;20494;-73
2022/08/26 04:37:36;;;;;;;12.93;8.30;;;19.90;83.10;;;;;;5034749;28;20667;-72
2022/08/26 04:40:04;;;;;;;11.60;7.67;;;19.80;83.30;;;;;;5043703;28;20672;-73
2022/08/26 04:42:32;;;;;;;12.53;8.10;;;19.80;83.40;;;;;;5044930;28;20196;-74
2022/08/26 04:44:57;;;;;;;15.27;8.73;;;19.90;83.30;;;;;;5043764;28;20429;-72
2022/08/26 04:47:23;;;;;;;11.00;8.37;;;20.00;83.10;;;;;;5040172;28;20489;-72
2022/08/26 04:49:52;;;;;;;11.03;8.23;;;19.90;83.10;;;;;;5041060;28;20279;-71
2022/08/26 04:52:17;;;;;;;15.77;8.30;;;20.00;83.10;;;;;;5036431;28;20222;-73
2022/08/26 04:54:43;;;;;;;12.30;8.33;;;20.00;82.80;;;;;;5040615;28;20436;-71
2022/08/26 04:57:08;;;;;;;12.77;8.27;;;19.90;82.80;;;;;;5037897;28;20261;-72
2022/08/26 04:59:34;;;;;;;10.33;8.20;;;20.00;82.70;;;;;;5035470;28;20783;-71
2022/08/26 05:02:00;;;;;;;11.90;8.77;;;20.00;82.10;;;;;;5041486;28;20200;-71
2022/08/26 05:04:26;;;;;;;13.67;8.13;;;20.00;81.80;;;;;;5038868;28;20193;-70
2022/08/26 05:06:52;;;;;;;11.43;8.70;;;20.00;81.90;;;;;;5037094;28;20440;-71
2022/08/26 05:09:17;;;;;;;10.73;8.70;;;20.10;81.80;;;;;;5042647;28;20546;-73
2022/08/26 05:11:44;;;;;;;15.17;9.17;;;20.10;81.80;;;;;;5044046;28;20295;-73
2022/08/26 05:14:10;;;;;;;10.30;8.53;;;20.00;82.40;;;;;;5039799;28;20190;-72
2022/08/26 05:16:36;;;;;;;13.07;7.80;;;20.10;81.70;;;;;;5043914;28;20996;-72
2022/08/26 05:19:03;;;;;;;19.40;8.87;;;20.20;80.90;;;;;;5045772;28;20276;-74
2022/08/26 05:21:28;;;;;;;14.00;9.30;;;20.30;80.20;;;;;;5042158;28;20479;-72
2022/08/26 05:23:54;;;;;;;12.50;8.27;;;20.30;79.90;;;;;;5044878;28;20428;-73
2022/08/26 05:26:27;;;;;;;14.50;9.10;;;20.30;80.00;;;;;;5047612;28;20218;-73
2022/08/26 05:28:55;;;;;;;13.97;9.73;;;20.10;80.50;;;;;;5040378;28;20575;-72
2022/08/26 05:31:24;;;;;;;13.20;8.97;;;20.00;81.10;;;;;;5048926;28;20511;-73
2022/08/26 05:33:50;;;;;;;14.03;8.60;;;20.00;81.40;;;;;;5051901;28;20430;-73
2022/08/26 05:36:18;;;;;;;12.90;9.10;;;20.00;81.50;;;;;;5046592;28;20428;-70
2022/08/26 05:38:44;;;;;;;12.40;8.93;;;20.00;81.40;;;;;;5048145;28;20446;-72
2022/08/26 05:41:31;;;;;;;12.57;9.07;;;20.00;81.50;;;;;;5045710;28;21013;-70
2022/08/26 05:43:59;;;;;;;14.10;8.87;;;20.00;81.40;;;;;;5042439;28;20452;-71
2022/08/26 05:46:26;;;;;;;12.33;8.57;;;20.10;81.20;;;;;;5046054;28;20446;-71
2022/08/26 05:48:55;;;;;;;15.03;9.17;;;20.00;81.20;;;;;;5041963;28;20501;-73
2022/08/26 05:51:22;;;;;;;11.90;8.80;;;20.10;81.20;;;;;;5039703;28;20471;-72
2022/08/26 05:53:48;;;;;;;13.80;8.43;;;20.10;81.10;;;;;;5042284;28;20454;-72
2022/08/26 05:56:14;;;;;;;12.50;9.07;;;20.10;81.10;;;;;;5037835;28;20808;-71
2022/08/26 05:58:41;;;;;;;14.33;8.93;;;20.10;81.10;;;;;;5037974;28;21005;-73
2022/08/26 06:01:16;;;;;;;12.53;8.60;;;20.00;81.20;;;;;;5042292;28;20464;-73
2022/08/26 06:03:45;;;;;;;15.10;8.40;;;20.00;81.10;;;;;;5042375;28;20886;-72
2022/08/26 06:06:18;;;;;;;16.40;8.90;;;20.00;81.20;;;;;;5032833;28;20425;-71
2022/08/26 06:08:44;;;;;;;11.20;7.57;;;20.10;80.90;;;;;;5041301;28;20463;-72
2022/08/26 06:11:15;;;;;;;13.30;9.00;;;20.20;80.60;;;;;;5040810;28;20482;-73
2022/08/26 06:13:40;;;;;;;15.43;9.30;;;20.30;80.60;;;;;;5040317;28;21018;-72
2022/08/26 06:16:09;;;;;;;18.83;10.00;;;20.30;80.60;;;;;;5042691;28;20415;-73
2022/08/26 06:18:38;;;;;;;13.13;8.80;;;20.30;80.80;;;;;;5039723;28;20357;-73
2022/08/26 06:21:17;;;;;;;14.43;8.80;;;20.30;80.60;;;;;;5038015;28;20543;-76
2022/08/26 06:26:34;;;;;;;20.57;9.83;;;20.40;80.30;;;;;;5041133;28;20428;-74
2022/08/26 06:29:00;;;;;;;14.43;9.50;;;20.50;80.00;;;;;;5045320;28;20463;-72
2022/08/26 06:31:26;;;;;;;14.87;8.97;;;20.50;79.60;;;;;;5045571;28;20481;-73
2022/08/26 06:33:53;;;;;;;14.70;9.53;;;20.60;79.70;;;;;;5046631;28;20424;-76
2022/08/26 06:36:21;;;;;;;17.03;9.90;;;20.60;79.50;;;;;;5053141;28;20985;-74
2022/08/26 06:38:47;;;;;;;17.60;9.30;;;20.70;79.30;;;;;;5051084;28;20456;-73
2022/08/26 06:41:14;;;;;;;14.53;9.00;;;20.70;79.30;;;;;;5042650;28;20482;-72
2022/08/26 06:43:39;;;;;;;15.30;9.53;;;20.60;79.50;;;;;;5044478;28;21155;-73
2022/08/26 06:46:08;;;;;;;16.97;10.23;;;20.60;79.60;;;;;;5045941;28;20540;-74
2022/08/26 06:48:34;;;;;;;18.30;9.60;;;20.70;79.50;;;;;;5042892;28;20293;-73
2022/08/26 06:51:21;;;;;;;11.00;8.83;;;20.70;79.50;;;;;;5043398;28;20483;-73
2022/08/26 06:53:49;;;;;;;16.80;9.97;;;20.70;79.20;;;;;;5036564;28;20519;-74
2022/08/26 06:56:17;;;;;;;15.27;10.30;;;20.80;78.70;;;;;;5042256;28;20437;-74
2022/08/26 06:58:43;;;;;;;18.13;9.00;;;20.80;78.60;;;;;;5033883;28;20512;-73
2022/08/26 07:01:23;;;;;;;15.53;9.57;;;20.80;78.70;;;;;;5041137;28;20609;-72
2022/08/26 07:03:51;;;;;;;13.63;9.40;;;20.80;79.00;;;;;;5035026;28;21022;-74
2022/08/26 07:06:20;;;;;;;15.00;9.93;;;20.80;79.00;;;;;;5043417;28;20438;-72
2022/08/26 07:08:50;;;;;;;16.60;10.17;;;20.80;79.20;;;;;;5039922;28;20421;-73
2022/08/26 07:11:18;;;;;;;11.80;8.80;;;20.90;79.20;;;;;;5036721;28;20473;-74
2022/08/26 07:13:44;;;;;;;17.83;9.40;;;21.00;78.70;;;;;;5040170;28;20453;-74
2022/08/26 07:16:12;;;;;;;23.50;9.83;;;21.10;78.40;;;;;;5036474;28;20424;-73
2022/08/26 07:18:40;;;;;;;12.80;9.07;;;21.20;78.10;;;;;;5043198;28;20448;-71
2022/08/26 07:21:09;;;;;;;13.43;9.40;;;21.20;78.30;;;;;;5034204;28;20889;-72
2022/08/26 07:23:35;;;;;;;13.07;8.80;;;21.30;78.00;;;;;;5035786;28;21022;-72
2022/08/26 07:26:06;;;;;;;14.60;9.03;;;21.40;78.00;;;;;;5037639;28;20421;-72
2022/08/26 07:28:32;;;;;;;14.03;9.33;;;21.60;77.60;;;;;;5040924;28;21058;-73
2022/08/26 07:31:02;;;;;;;14.20;9.57;;;21.70;77.10;;;;;;5036329;28;20567;-72
2022/08/26 07:33:28;;;;;;;12.23;8.90;;;21.80;76.80;;;;;;5041912;28;20191;-71
2022/08/26 07:35:54;;;;;;;16.00;10.40;;;21.90;76.50;;;;;;5034346;28;20445;-72
2022/08/26 07:38:19;;;;;;;16.90;10.90;;;21.90;75.80;;;;;;5040923;28;20924;-73
2022/08/26 07:40:46;;;;;;;12.97;9.77;;;21.90;75.50;;;;;;5036343;28;20211;-71
2022/08/26 07:43:11;;;;;;;13.10;9.03;;;21.90;75.10;;;;;;5035996;28;20173;-73
2022/08/26 07:45:37;;;;;;;21.67;11.40;;;22.00;74.90;;;;;;5033544;28;20481;-72
2022/08/26 07:48:03;;;;;;;17.63;11.50;;;22.00;75.40;;;;;;5039690;28;20671;-72
2022/08/26 07:50:29;;;;;;;17.93;12.47;;;22.00;76.10;;;;;;5031868;28;20307;-72
2022/08/26 07:52:55;;;;;;;20.83;11.30;;;22.00;76.40;;;;;;5039040;28;20440;-72
2022/08/26 07:55:21;;;;;;;13.23;10.83;;;22.00;76.70;;;;;;5040896;28;20549;-72
2022/08/26 07:57:48;;;;;;;19.13;11.30;;;22.10;76.50;;;;;;5036112;28;20649;-72
2022/08/26 08:00:15;;;;;;;15.60;10.70;;;22.20;76.20;;;;;;5045199;28;20511;-72
2022/08/26 08:02:43;;;;;;;16.57;11.80;;;22.30;75.80;;;;;;5038772;28;20493;-72
2022/08/26 08:05:10;;;;;;;15.77;10.50;;;22.40;75.50;;;;;;5046339;28;20422;-72
2022/08/26 08:07:37;;;;;;;19.70;10.60;;;22.40;75.40;;;;;;5039031;28;20431;-71
2022/08/26 08:10:04;;;;;;;15.77;9.80;;;22.50;75.50;;;;;;5041709;28;20454;-73
2022/08/26 08:12:30;;;;;;;15.47;10.53;;;22.60;75.10;;;;;;5039301;28;20622;-71
2022/08/26 08:14:55;;;;;;;15.83;10.20;;;22.80;74.60;;;;;;5047692;28;20502;-71
2022/08/26 08:17:21;;;;;;;15.47;10.43;;;22.90;73.90;;;;;;5037532;28;20204;-73
2022/08/26 08:19:47;;;;;;;17.50;10.37;;;23.00;73.50;;;;;;5046711;28;20211;-73
2022/08/26 08:22:12;;;;;;;13.37;9.77;;;23.10;73.00;;;;;;5041898;28;20887;-72
2022/08/26 08:24:38;;;;;;;17.33;10.47;;;23.20;72.40;;;;;;5046272;28;20682;-73
2022/08/26 08:27:04;;;;;;;12.87;9.20;;;23.30;71.70;;;;;;5042362;28;20312;-72
2022/08/26 08:29:29;;;;;;;13.13;9.97;;;23.40;71.60;;;;;;5044792;28;20259;-71
2022/08/26 08:31:56;;;;;;;12.37;8.57;;;23.60;71.00;;;;;;5039065;28;20234;-72
2022/08/26 08:34:23;;;;;;;13.23;8.03;;;23.80;70.40;;;;;;5040642;28;20574;-74
2022/08/26 08:36:49;;;;;;;13.53;9.77;;;23.90;69.50;;;;;;5034539;28;20416;-71
2022/08/26 08:39:15;;;;;;;12.83;9.70;;;24.10;68.80;;;;;;5046085;28;20420;-72
2022/08/26 08:41:44;;;;;;;13.93;9.40;;;24.20;67.90;;;;;;5047396;28;20705;-74
2022/08/26 08:44:18;;;;;;;12.50;8.10;;;24.20;67.70;;;;;;5043513;28;20942;-73
2022/08/26 08:46:49;;;;;;;11.00;8.50;;;24.30;67.70;;;;;;5040358;28;20431;-73
2022/08/26 08:49:15;;;;;;;13.23;8.30;;;24.50;66.90;;;;;;5042521;28;20513;-72
2022/08/26 08:51:59;;;;;;;12.53;8.23;;;24.70;66.10;;;;;;5048311;28;20565;-72
2022/08/26 08:54:28;;;;;;;13.47;8.70;;;24.90;65.60;;;;;;5042833;28;21019;-72
2022/08/26 08:57:11;;;;;;;13.80;8.17;;;25.10;65.00;;;;;;5048638;28;20516;-72
2022/08/26 08:59:52;;;;;;;9.90;7.87;;;25.20;64.40;;;;;;5039944;28;21006;-72
2022/08/26 09:02:40;;;;;;;12.07;8.70;;;25.30;64.10;;;;;;5040728;28;20427;-71
2022/08/26 09:05:24;;;;;;;10.37;7.57;;;25.40;63.70;;;;;;5034108;28;20432;-72
2022/08/26 09:07:52;;;;;;;12.20;7.60;;;25.50;63.40;;;;;;5042506;28;20919;-72
2022/08/26 09:10:25;;;;;;;9.73;7.07;;;25.70;62.60;;;;;;5039286;28;20483;-73
2022/08/26 09:12:51;;;;;;;10.53;7.90;;;25.70;62.00;;;;;;5042806;28;20466;-71
2022/08/26 09:15:32;;;;;;;13.27;8.20;;;25.80;62.00;;;;;;5043362;28;20508;-71
2022/08/26 09:18:08;;;;;;;10.73;7.77;;;26.20;60.90;;;;;;5041180;28;20479;-71
2022/08/26 09:21:03;;;;;;;11.17;7.50;;;26.20;60.60;;;;;;5035572;28;20451;-71
2022/08/26 09:23:31;;;;;;;11.90;7.30;;;26.00;61.50;;;;;;5038038;28;20481;-72
2022/08/26 09:26:00;;;;;;;13.43;7.53;;;26.00;61.90;;;;;;5043794;28;20825;-72
2022/08/26 09:28:28;;;;;;;11.70;8.50;;;26.40;61.00;;;;;;5043628;28;20505;-76
2022/08/26 09:31:27;;;;;;;11.23;7.50;;;26.30;60.70;;;;;;5044981;28;20470;-73
2022/08/26 09:34:22;;;;;;;11.10;7.93;;;26.30;61.00;;;;;;5045244;28;20423;-73
2022/08/26 09:36:53;;;;;;;14.80;8.03;;;26.20;61.30;;;;;;5040641;28;20431;-72
2022/08/26 09:39:35;;;;;;;16.20;8.53;;;26.20;61.60;;;;;;5040532;28;20507;-71
2022/08/26 09:42:06;;;;;;;12.80;7.73;;;26.40;61.20;;;;;;5038145;28;20478;-71
2022/08/26 09:44:32;;;;;;;12.00;7.20;;;26.60;60.40;;;;;;5041732;28;20950;-72
2022/08/26 09:47:01;;;;;;;12.80;7.93;;;26.60;60.60;;;;;;5037509;28;21273;-72
2022/08/26 09:49:38;;;;;;;12.30;7.90;;;26.60;60.40;;;;;;5040387;28;20438;-71
2022/08/26 09:52:07;;;;;;;14.07;7.77;;;26.80;59.90;;;;;;5038063;28;20553;-71
2022/08/26 09:54:34;;;;;;;18.43;8.20;;;26.80;60.00;;;;;;5042048;28;20514;-72
2022/08/26 09:57:25;;;;;;;11.50;7.70;;;27.00;59.30;;;;;;5048197;28;20425;-72
2022/08/26 09:59:52;;;;;;;10.83;7.47;;;27.10;59.30;;;;;;5038877;28;20489;-72
2022/08/26 10:02:32;;;;;;;9.27;7.60;;;27.10;59.30;;;;;;5042053;28;20433;-72
2022/08/26 10:05:01;;;;;;;10.37;7.20;;;27.20;59.20;;;;;;5042231;28;20425;-71
2022/08/26 10:07:38;;;;;;;12.37;8.40;;;27.50;58.70;;;;;;5042261;28;20944;-73
2022/08/26 10:10:11;;;;;;;13.30;7.80;;;27.60;58.20;;;;;;5042234;28;20534;-73
2022/08/26 10:12:50;;;;;;;15.60;7.77;;;27.60;58.20;;;;;;5051947;28;20474;-71
2022/08/26 10:15:17;;;;;;;12.57;7.47;;;27.90;57.70;;;;;;5045036;28;20456;-72
2022/08/26 10:18:02;;;;;;;12.83;7.30;;;27.80;57.60;;;;;;5042003;28;20515;-72
2022/08/26 10:20:34;;;;;;;17.30;8.87;;;27.80;57.80;;;;;;5037334;28;20481;-73
2022/08/26 10:23:12;;;;;;;16.03;8.37;;;27.80;57.80;;;;;;5040302;28;20426;-72
2022/08/26 10:26:17;;;;;;;14.40;8.13;;;27.80;58.10;;;;;;5043826;28;20418;-72
2022/08/26 10:29:05;;;;;;;18.97;9.30;;;27.80;57.60;;;;;;5030802;28;20471;-72
2022/08/26 10:31:45;;;;;;;16.90;8.87;;;27.90;57.40;;;;;;5041455;28;21009;-73
2022/08/26 10:34:11;;;;;;;17.87;8.60;;;28.10;56.80;;;;;;5043518;28;20504;-72
2022/08/26 10:37:09;;;;;;;15.50;9.07;;;28.10;56.10;;;;;;5046302;28;20422;-72
2022/08/26 10:39:51;;;;;;;18.30;9.00;;;28.30;56.00;;;;;;5036366;28;20949;-71
2022/08/26 10:42:40;;;;;;;21.53;10.70;;;28.40;55.00;;;;;;5046760;28;20439;-73
2022/08/26 10:45:11;;;;;;;25.37;9.10;;;28.20;55.80;;;;;;5043534;28;20427;-71
2022/08/26 10:47:50;;;;;;;18.00;8.90;;;28.30;54.60;;;;;;5042972;28;20792;-75
2022/08/26 10:50:16;;;;;;;14.67;8.90;;;28.30;54.20;;;;;;5039749;28;20461;-72
2022/08/26 10:52:56;;;;;;;18.07;8.73;;;28.40;54.10;;;;;;5032514;28;20460;-72
2022/08/26 10:55:34;;;;;;;12.70;8.67;;;28.90;52.90;;;;;;5046585;28;20428;-75
2022/08/26 10:58:24;;;;;;;14.43;8.27;;;28.90;52.90;;;;;;5043047;28;20470;-72
2022/08/26 11:04:24;;;;;;;15.03;8.97;;;28.90;52.80;;;;;;5046053;28;20434;-72
2022/08/26 11:07:28;;;;;;;12.47;8.23;;;29.40;51.80;;;;;;5040520;28;20845;-72
2022/08/26 11:09:55;;;;;;;12.50;8.30;;;30.00;49.50;;;;;;5040184;28;20455;-72
2022/08/26 11:12:35;;;;;;;13.80;8.50;;;29.80;49.30;;;;;;5047172;28;20471;-72
2022/08/26 11:15:08;;;;;;;16.63;7.60;;;29.90;48.20;;;;;;5043705;28;20446;-72
2022/08/26 11:17:43;;;;;;;11.90;7.20;;;30.30;47.00;;;;;;5036664;28;20432;-74
2022/08/26 11:20:22;;;;;;;12.47;8.00;;;31.30;44.60;;;;;;5035402;28;20481;-72
2022/08/26 11:22:52;;;;;;;14.03;7.83;;;32.00;43.70;;;;;;5038637;28;20541;-71
2022/08/26 11:25:25;;;;;;;12.07;7.73;;;32.30;43.10;;;;;;5042521;28;20434;-73
2022/08/26 11:27:54;;;;;;;10.93;7.43;;;32.30;42.40;;;;;;5039021;28;20839;-72
2022/08/26 11:30:19;;;;;;;14.87;8.10;;;32.10;42.70;;;;;;5040135;28;20561;-71
2022/08/26 11:32:47;;;;;;;16.60;8.50;;;31.70;43.00;;;;;;5046224;28;20931;-72
2022/08/26 11:35:16;;;;;;;16.10;9.00;;;31.40;46.50;;;;;;5042084;28;20195;-72
2022/08/26 11:37:49;;;;;;;15.53;9.00;;;30.80;48.20;;;;;;5036603;28;20522;-73
2022/08/26 11:40:23;;;;;;;14.93;9.03;;;30.10;50.50;;;;;;5034331;28;20461;-72
2022/08/26 11:42:54;;;;;;;17.57;9.30;;;29.70;51.40;;;;;;5036220;28;20460;-71
2022/08/26 11:45:39;;;;;;;16.53;8.50;;;29.60;51.80;;;;;;5036105;28;20511;-71
2022/08/26 11:48:20;;;;;;;15.40;8.30;;;29.70;51.60;;;;;;5031710;28;20978;-72
2022/08/26 11:50:59;;;;;;;15.07;9.20;;;29.70;51.30;;;;;;5039735;28;20546;-72
2022/08/26 11:53:25;;;;;;;18.80;9.67;;;29.60;51.40;;;;;;5032701;28;20416;-72
2022/08/26 11:55:53;;;;;;;20.97;9.30;;;29.40;52.20;;;;;;5041689;28;20435;-75
2022/08/26 11:58:20;;;;;;;14.87;8.80;;;29.20;52.80;;;;;;5040793;28;20572;-73
2022/08/26 12:00:54;;;;;;;17.83;8.87;;;29.40;52.40;;;;;;5043371;28;20491;-73
2022/08/26 12:03:29;;;;;;;19.43;9.60;;;30.00;51.30;;;;;;5047600;28;20461;-72
2022/08/26 12:05:56;;;;;;;19.77;9.60;;;30.10;50.30;;;;;;5043455;28;20461;-74
2022/08/26 12:08:27;;;;;;;16.47;8.87;;;30.50;48.90;;;;;;5040993;28;20426;-72
2022/08/26 12:11:08;;;;;;;14.47;8.33;;;30.60;48.10;;;;;;5044932;28;20474;-72
2022/08/26 12:13:35;;;;;;;15.13;9.60;;;30.90;47.80;;;;;;5047096;28;20446;-73
2022/08/26 12:16:01;;;;;;;18.90;8.93;;;31.30;47.30;;;;;;5044550;28;20545;-72
2022/08/26 12:18:33;;;;;;;19.20;8.67;;;31.90;45.80;;;;;;5042249;28;20923;-72
2022/08/26 12:21:08;;;;;;;11.97;6.80;;;32.40;44.60;;;;;;5042940;28;20217;-75
2022/08/26 12:23:34;;;;;;;15.20;9.20;;;32.90;44.20;;;;;;5043998;28;20419;-73
2022/08/26 12:26:31;;;;;;;21.30;9.03;;;32.30;44.70;;;;;;5043753;28;20550;-73
2022/08/26 12:28:58;;;;;;;14.70;8.80;;;31.70;45.50;;;;;;5044482;28;20794;-72
2022/08/26 12:31:27;;;;;;;15.90;8.53;;;31.60;45.70;;;;;;5041831;28;20977;-73
2022/08/26 12:33:54;;;;;;;17.30;9.13;;;32.00;44.50;;;;;;5043471;28;20433;-73
2022/08/26 12:36:27;;;;;;;19.57;8.23;;;31.60;44.70;;;;;;5041934;28;20446;-72
2022/08/26 12:38:54;;;;;;;15.93;9.73;;;32.30;43.80;;;;;;5047490;28;20427;-73
2022/08/26 12:41:45;;;;;;;20.80;9.53;;;32.40;44.90;;;;;;5044912;28;20467;-73
2022/08/26 12:44:31;;;;;;;18.20;9.07;;;32.60;45.10;;;;;;5042174;28;20438;-72
2022/08/26 12:47:17;;;;;;;20.53;9.50;;;32.40;45.90;;;;;;5047656;28;20539;-71
2022/08/26 12:49:43;;;;;;;17.83;9.90;;;31.70;47.10;;;;;;5031990;28;20474;-72
2022/08/26 12:52:28;;;;;;;15.23;8.80;;;30.70;48.90;;;;;;5037166;28;20475;-72
2022/08/26 12:54:59;;;;;;;16.40;8.87;;;30.20;49.80;;;;;;5035635;28;20424;-74
2022/08/26 12:57:31;;;;;;;15.20;9.00;;;29.70;51.20;;;;;;5041245;28;20416;-72
2022/08/26 13:00:30;;;;;;;15.50;9.50;;;29.60;51.40;;;;;;5041502;28;20450;-72
2022/08/26 13:02:56;;;;;;;14.43;9.57;;;29.70;51.60;;;;;;5041153;28;20455;-73